sim
Sign-in with your pilot id or email,
or register
Callsign
Passwort

Schedule Details

Flight Number: DLH1821 (1)
Departure: Palma de Mallorca Airport (LEPA) at 17:35
Arrival: Munich Airport (EDDM) at 19:45
Route: Lufthansa Passenger Schedule. Enter filed route here before submitting Pirep.

Weather Information
Getting current METAR information for LEPA 262000Z 25009KT 9999 FEW030 20/11 Q1010 NOSIG
Getting current METAR information for EDDM 262020Z 24018KT 9999 -RA BKN022 BKN034 07/04 Q1001 NOSIG

Schedule Frequency

Route Map